Aérodrome :
LOGIN :

S'inscrire | Disclaimer

   EN    FR    IT 

 










Légende :    VFR   VFR Marginal   IFR   IFR Intensif   IFR Très Intensif
Visi : 
Plafond : 
>= 8 km
>= 3000ft
5 à 8 km
1000 à 3000 ft
1500m à 5 km
500 à 1000 ft
800 à 1500m
200 à 500 ft
< 800m
< 200 ft
Symboles :   Orages  Brouillard  Fortes neiges  Fortes précipitations  Vent > 20 kt
SIGMETs :   Divers  Orages  Givrage  Turbulence  Onde Orograph.  Cendres Volcan.






- Altitude de l'aérodrome : 1197 ft
- Code IATA : SPM


ETAD - Spangdahlem Ab

DERNIER METAR :
  • 220111Z AUTO 21008KT 9999 BKN020 02/00 A3031 RMK AO2 SLP268 $

METARs EXPIRÉS :
  • 212356Z AUTO 21010KT 9999 CLR 02/00 A3030 RMK AO2 SLP267 T00201001 10045 20019 57014
  • 212256Z AUTO 22010KT 9999 FEW130 03/00 A3031 RMK AO2 SLP270 T00300004 400651004 $

TAF COR TAF ETAD
Valide du 21 à 21h jusqu'au 23 à 03h UTC


212101Z 2121/2303 23010G15KT 9999 SCT018 BKN140 QNH3026INS
BECMG 2202/2203 23009KT 8000 BR BKN008 OVC010 QNH3024INS
BECMG 2208/2209 24015G25KT 9999 NSW SCT020 BKN130 510002 QNH3020INS
BECMG 2217/2218 23020G35KT 6000 -RA BKN012 OVC018 620809 520003 QNH3014INS TX07/2213Z TN02/2206Z LAST NO AMDS AFT 2121 NEXT 2207



MET'MAP, la Météo Aéronautique d'un coup d'oeil ! - Copyright ORBIFLY Décembre 2007 - Disclaimer

ORBIFLY MET'MAP TEAM :

Programmation & Développement : Alexandra Zaïnal
Sur une idée originale de : Baudouin d'Aumeries
Assistance à la programmation : Marc-Olivier Méhu
Soutien technique & logistique : Manuel Goepfert

Contact : metmap@orbifly.com




SOURCES & CREDITS :

   NOAA